الصفحة الرئيسية
METAR-TAF:

METAR-TAF

مطار :

مطار جيبوتي الدولي

جيبوتي, جيبوتي

دائرة عرض: 11-33N, خط طول: 043-10E, ارتفاع: 49 متر

مراقبة الطقس الحالي

تاريخ ووقت الإصدار 1ساعة و 15 دقيقة قبل الساعة 05:00UTC
ريح 4 عقدة من الشرق
درجة الحرارة 34°درجة مئوية
الرطوبة 50%
ضغط 1007 hPa
الرؤية 10 كم أو أكثر
الغيوم لا تقل 1500 م ولا وجود لمزنة ركامية السحاب الأسود

METAR: HDAM 240500Z 10004KT CAVOK 34/22 Q1007

زمن: 09:15 (06:15 UTC)

توقعات

تاريخ ووقت الإصدار 2ساعات و 15 دقيقة قبل الساعة 04:00UTC
التوقعات صالحة من24 الساعة 06 UTC إلى 25 الساعة 06 UTC
ريح 10 عقدة من الشرق
الرؤية 10 كم أو أكثر
غيوم متفرقة على ارتفاع 2300 قدم
أصبح
من 24 الساعة 15 UTC إلى 24 الساعة 18 UTC
ريح 5 عقدةمن اتجاهات متغيرة
غيوم قليلة على ارتفاع 2000 قدم
أصبح
من 25 الساعة 00 UTC إلى 25 الساعة 03 UTC
ريح عقدة من الشمال
غيوم متفرقة على ارتفاع 2000 قدم

TAF: HDAM 240400Z 2406/2506 08010KT 9999 SCT023 BECMG 2415/2418 VRB05KT FEW020 BECMG 2500/2503 00000KT SCT020

أرصاد الطقس والتوقعات من أكثر من 4000 مطار (تقارير الطقس للمطار METAR والتنبؤ بالطقس بالمطارTAF).

المحطات المتاحة هي النقط الصفراء والحمراء على الخريطة.

حرك المؤشر فوق النقطة لمعرفة اسم المحطة.

ثم انقر لمعرفة أرصاد وتوقعات الطقس.

لتغيير الخارطة: اضغط على الأزرار الخضراء مع رمز الصليب الأسود للتكبير. على الزر الأخضر مع شرطة للتصغير، أو على الأسهم الخضراء للخرائط المجاورة.


METAR-TAF: